sensor_id;sensor_type;location;lat;lon;timestamp;temperature;humidity
12166;DHT22;6146;48.128;11.476;2024-01-25T00:01:30;8.10;99.90
12166;DHT22;6146;48.128;11.476;2024-01-25T00:03:55;8.10;99.90
12166;DHT22;6146;48.128;11.476;2024-01-25T00:06:21;8.10;99.90
12166;DHT22;6146;48.128;11.476;2024-01-25T00:08:46;8.10;99.90
12166;DHT22;6146;48.128;11.476;2024-01-25T00:11:12;8.10;99.90
12166;DHT22;6146;48.128;11.476;2024-01-25T00:13:38;8.10;99.90
12166;DHT22;6146;48.128;11.476;2024-01-25T00:16:04;8.10;99.90
12166;DHT22;6146;48.128;11.476;2024-01-25T00:18:30;8.10;99.90
12166;DHT22;6146;48.128;11.476;2024-01-25T00:20:55;8.00;99.90
12166;DHT22;6146;48.128;11.476;2024-01-25T00:23:21;8.00;99.90
12166;DHT22;6146;48.128;11.476;2024-01-25T00:25:47;8.10;99.90
12166;DHT22;6146;48.128;11.476;2024-01-25T00:28:12;8.10;99.90
12166;DHT22;6146;48.128;11.476;2024-01-25T00:30:38;8.10;99.90
12166;DHT22;6146;48.128;11.476;2024-01-25T00:33:04;8.10;99.90
12166;DHT22;6146;48.128;11.476;2024-01-25T00:35:30;8.10;99.90
12166;DHT22;6146;48.128;11.476;2024-01-25T00:37:56;8.20;99.90
12166;DHT22;6146;48.128;11.476;2024-01-25T00:40:22;8.20;99.90
12166;DHT22;6146;48.128;11.476;2024-01-25T00:42:48;8.20;99.90
12166;DHT22;6146;48.128;11.476;2024-01-25T00:45:21;8.20;99.90
12166;DHT22;6146;48.128;11.476;2024-01-25T00:47:48;8.20;99.90
12166;DHT22;6146;48.128;11.476;2024-01-25T00:50:13;8.20;99.90
12166;DHT22;6146;48.128;11.476;2024-01-25T00:52:39;8.30;99.90
12166;DHT22;6146;48.128;11.476;2024-01-25T00:55:05;8.30;99.90
12166;DHT22;6146;48.128;11.476;2024-01-25T00:57:32;8.30;99.90
12166;DHT22;6146;48.128;11.476;2024-01-25T00:59:59;8.30;99.90
12166;DHT22;6146;48.128;11.476;2024-01-25T01:02:27;8.30;99.90
12166;DHT22;6146;48.128;11.476;2024-01-25T01:04:59;8.30;99.90
12166;DHT22;6146;48.128;11.476;2024-01-25T01:07:25;8.30;99.90
12166;DHT22;6146;48.128;11.476;2024-01-25T01:09:50;8.30;99.90
12166;DHT22;6146;48.128;11.476;2024-01-25T01:12:16;8.40;99.90
12166;DHT22;6146;48.128;11.476;2024-01-25T01:14:42;8.40;99.90
12166;DHT22;6146;48.128;11.476;2024-01-25T01:17:07;8.40;99.90
12166;DHT22;6146;48.128;11.476;2024-01-25T01:19:33;8.40;99.90
12166;DHT22;6146;48.128;11.476;2024-01-25T01:21:58;8.40;99.90
12166;DHT22;6146;48.128;11.476;2024-01-25T01:24:24;8.40;99.90
12166;DHT22;6146;48.128;11.476;2024-01-25T01:26:50;8.50;99.90
12166;DHT22;6146;48.128;11.476;2024-01-25T01:29:16;8.50;99.90
12166;DHT22;6146;48.128;11.476;2024-01-25T01:31:42;8.50;99.90
12166;DHT22;6146;48.128;11.476;2024-01-25T01:34:07;8.40;99.90
12166;DHT22;6146;48.128;11.476;2024-01-25T01:36:33;8.40;99.90
12166;DHT22;6146;48.128;11.476;2024-01-25T01:38:58;8.40;99.90
12166;DHT22;6146;48.128;11.476;2024-01-25T01:41:24;8.40;99.90
12166;DHT22;6146;48.128;11.476;2024-01-25T01:43:53;8.40;99.90
12166;DHT22;6146;48.128;11.476;2024-01-25T01:48:56;8.40;99.90
12166;DHT22;6146;48.128;11.476;2024-01-25T01:51:22;8.40;99.90
12166;DHT22;6146;48.128;11.476;2024-01-25T01:53:47;8.40;99.90
12166;DHT22;6146;48.128;11.476;2024-01-25T01:56:14;8.40;99.90
12166;DHT22;6146;48.128;11.476;2024-01-25T01:58:40;8.40;99.90
12166;DHT22;6146;48.128;11.476;2024-01-25T02:01:06;8.40;99.90
12166;DHT22;6146;48.128;11.476;2024-01-25T02:03:32;8.40;99.90
12166;DHT22;6146;48.128;11.476;2024-01-25T02:05:57;8.30;99.90
12166;DHT22;6146;48.128;11.476;2024-01-25T02:08:28;8.30;99.90
12166;DHT22;6146;48.128;11.476;2024-01-25T02:10:54;8.30;99.90
12166;DHT22;6146;48.128;11.476;2024-01-25T02:13:21;8.30;99.90
12166;DHT22;6146;48.128;11.476;2024-01-25T02:15:46;8.30;99.90
12166;DHT22;6146;48.128;11.476;2024-01-25T02:18:12;8.30;99.90
12166;DHT22;6146;48.128;11.476;2024-01-25T02:20:38;8.30;99.90
12166;DHT22;6146;48.128;11.476;2024-01-25T02:23:04;8.30;99.90
12166;DHT22;6146;48.128;11.476;2024-01-25T02:25:29;8.30;99.90
12166;DHT22;6146;48.128;11.476;2024-01-25T02:27:55;8.20;99.90
12166;DHT22;6146;48.128;11.476;2024-01-25T02:30:20;8.30;99.90
12166;DHT22;6146;48.128;11.476;2024-01-25T02:32:46;8.20;99.90
12166;DHT22;6146;48.128;11.476;2024-01-25T02:35:11;8.30;99.90
12166;DHT22;6146;48.128;11.476;2024-01-25T02:37:37;8.30;99.90
12166;DHT22;6146;48.128;11.476;2024-01-25T02:40:03;8.30;99.90
12166;DHT22;6146;48.128;11.476;2024-01-25T02:42:29;8.30;99.90
12166;DHT22;6146;48.128;11.476;2024-01-25T02:44:54;8.30;99.90
12166;DHT22;6146;48.128;11.476;2024-01-25T02:47:20;8.30;99.90
12166;DHT22;6146;48.128;11.476;2024-01-25T02:49:45;8.30;99.90
12166;DHT22;6146;48.128;11.476;2024-01-25T02:52:11;8.20;99.90
12166;DHT22;6146;48.128;11.476;2024-01-25T02:54:36;8.30;99.90
12166;DHT22;6146;48.128;11.476;2024-01-25T02:57:02;8.30;99.90
12166;DHT22;6146;48.128;11.476;2024-01-25T02:59:28;8.30;99.90
12166;DHT22;6146;48.128;11.476;2024-01-25T03:01:54;8.30;99.90
12166;DHT22;6146;48.128;11.476;2024-01-25T03:04:19;8.20;99.90
12166;DHT22;6146;48.128;11.476;2024-01-25T03:06:45;8.20;99.90
12166;DHT22;6146;48.128;11.476;2024-01-25T03:09:11;8.20;99.90
12166;DHT22;6146;48.128;11.476;2024-01-25T03:11:36;8.20;99.90
12166;DHT22;6146;48.128;11.476;2024-01-25T03:14:02;8.20;99.90
12166;DHT22;6146;48.128;11.476;2024-01-25T03:16:27;8.20;99.90
12166;DHT22;6146;48.128;11.476;2024-01-25T03:18:53;8.30;99.90
12166;DHT22;6146;48.128;11.476;2024-01-25T03:21:19;8.20;99.90
12166;DHT22;6146;48.128;11.476;2024-01-25T03:23:46;8.30;99.90
12166;DHT22;6146;48.128;11.476;2024-01-25T03:26:11;8.20;99.90
12166;DHT22;6146;48.128;11.476;2024-01-25T03:28:37;8.30;99.90
12166;DHT22;6146;48.128;11.476;2024-01-25T03:31:04;8.30;99.90
12166;DHT22;6146;48.128;11.476;2024-01-25T03:33:30;8.30;99.90
12166;DHT22;6146;48.128;11.476;2024-01-25T03:36:01;8.30;99.90
12166;DHT22;6146;48.128;11.476;2024-01-25T03:38:28;8.30;99.90
12166;DHT22;6146;48.128;11.476;2024-01-25T03:40:53;8.30;99.90
12166;DHT22;6146;48.128;11.476;2024-01-25T03:43:19;8.20;99.90
12166;DHT22;6146;48.128;11.476;2024-01-25T03:45:45;8.20;99.90
12166;DHT22;6146;48.128;11.476;2024-01-25T03:48:10;8.20;99.90
12166;DHT22;6146;48.128;11.476;2024-01-25T03:50:36;8.10;99.90
12166;DHT22;6146;48.128;11.476;2024-01-25T03:53:01;8.10;99.90
12166;DHT22;6146;48.128;11.476;2024-01-25T03:55:27;8.10;99.90
12166;DHT22;6146;48.128;11.476;2024-01-25T03:57:52;8.10;99.90
12166;DHT22;6146;48.128;11.476;2024-01-25T04:00:18;8.10;99.90
12166;DHT22;6146;48.128;11.476;2024-01-25T04:02:44;8.10;99.90
12166;DHT22;6146;48.128;11.476;2024-01-25T04:05:09;8.10;99.90
12166;DHT22;6146;48.128;11.476;2024-01-25T04:07:35;8.10;99.90
12166;DHT22;6146;48.128;11.476;2024-01-25T04:10:01;8.10;99.90
12166;DHT22;6146;48.128;11.476;2024-01-25T04:12:27;8.10;99.90
12166;DHT22;6146;48.128;11.476;2024-01-25T04:14:53;8.10;99.90
12166;DHT22;6146;48.128;11.476;2024-01-25T04:17:18;8.10;99.90
12166;DHT22;6146;48.128;11.476;2024-01-25T04:19:44;8.10;99.90
12166;DHT22;6146;48.128;11.476;2024-01-25T04:22:09;8.10;99.90
12166;DHT22;6146;48.128;11.476;2024-01-25T04:24:35;8.10;99.90
12166;DHT22;6146;48.128;11.476;2024-01-25T04:27:00;8.10;99.90
12166;DHT22;6146;48.128;11.476;2024-01-25T04:29:26;8.00;99.90
12166;DHT22;6146;48.128;11.476;2024-01-25T04:31:51;8.00;99.90
12166;DHT22;6146;48.128;11.476;2024-01-25T04:34:17;7.90;99.90
12166;DHT22;6146;48.128;11.476;2024-01-25T04:36:42;7.90;99.90
12166;DHT22;6146;48.128;11.476;2024-01-25T04:39:08;7.90;99.90
12166;DHT22;6146;48.128;11.476;2024-01-25T04:41:34;7.90;99.90
12166;DHT22;6146;48.128;11.476;2024-01-25T04:43:59;7.90;99.90
12166;DHT22;6146;48.128;11.476;2024-01-25T04:46:25;7.90;99.90
12166;DHT22;6146;48.128;11.476;2024-01-25T04:48:50;7.90;99.90
12166;DHT22;6146;48.128;11.476;2024-01-25T04:51:16;8.00;99.90
12166;DHT22;6146;48.128;11.476;2024-01-25T04:53:42;7.90;99.90
12166;DHT22;6146;48.128;11.476;2024-01-25T04:56:08;7.90;99.90
12166;DHT22;6146;48.128;11.476;2024-01-25T04:58:34;7.80;99.90
12166;DHT22;6146;48.128;11.476;2024-01-25T05:01:00;7.80;99.90
12166;DHT22;6146;48.128;11.476;2024-01-25T05:03:25;7.90;99.90
12166;DHT22;6146;48.128;11.476;2024-01-25T05:05:51;7.90;99.90
12166;DHT22;6146;48.128;11.476;2024-01-25T05:08:16;7.90;99.90
12166;DHT22;6146;48.128;11.476;2024-01-25T05:10:42;7.90;99.90
12166;DHT22;6146;48.128;11.476;2024-01-25T05:13:08;7.90;99.90
12166;DHT22;6146;48.128;11.476;2024-01-25T05:15:34;7.90;99.90
12166;DHT22;6146;48.128;11.476;2024-01-25T05:18:00;7.80;99.90
12166;DHT22;6146;48.128;11.476;2024-01-25T05:20:26;7.80;99.90
12166;DHT22;6146;48.128;11.476;2024-01-25T05:22:58;7.80;99.90
12166;DHT22;6146;48.128;11.476;2024-01-25T05:25:24;7.80;99.90
12166;DHT22;6146;48.128;11.476;2024-01-25T05:27:51;7.80;99.90
12166;DHT22;6146;48.128;11.476;2024-01-25T05:30:18;8.90;99.90
12166;DHT22;6146;48.128;11.476;2024-01-25T05:32:43;7.80;99.90
12166;DHT22;6146;48.128;11.476;2024-01-25T05:35:09;7.80;99.90
12166;DHT22;6146;48.128;11.476;2024-01-25T05:37:35;7.80;99.90
12166;DHT22;6146;48.128;11.476;2024-01-25T05:40:00;7.80;99.90
12166;DHT22;6146;48.128;11.476;2024-01-25T05:42:26;7.80;99.90
12166;DHT22;6146;48.128;11.476;2024-01-25T05:44:51;7.80;99.90
12166;DHT22;6146;48.128;11.476;2024-01-25T05:47:17;7.70;99.90
12166;DHT22;6146;48.128;11.476;2024-01-25T05:49:43;7.70;99.90
12166;DHT22;6146;48.128;11.476;2024-01-25T05:52:08;7.70;99.90
12166;DHT22;6146;48.128;11.476;2024-01-25T05:54:34;7.60;99.90
12166;DHT22;6146;48.128;11.476;2024-01-25T05:56:59;7.70;99.90
12166;DHT22;6146;48.128;11.476;2024-01-25T05:59:25;7.70;99.90
12166;DHT22;6146;48.128;11.476;2024-01-25T06:01:50;7.70;99.90
12166;DHT22;6146;48.128;11.476;2024-01-25T06:04:16;7.70;99.90
12166;DHT22;6146;48.128;11.476;2024-01-25T06:06:41;7.60;99.90
12166;DHT22;6146;48.128;11.476;2024-01-25T06:09:07;7.70;99.90
12166;DHT22;6146;48.128;11.476;2024-01-25T06:11:34;7.70;99.90
12166;DHT22;6146;48.128;11.476;2024-01-25T06:14:00;7.60;99.90
12166;DHT22;6146;48.128;11.476;2024-01-25T06:16:26;7.60;99.90
12166;DHT22;6146;48.128;11.476;2024-01-25T06:18:51;7.60;99.90
12166;DHT22;6146;48.128;11.476;2024-01-25T06:21:17;7.60;99.90
12166;DHT22;6146;48.128;11.476;2024-01-25T06:23:42;7.60;99.90
12166;DHT22;6146;48.128;11.476;2024-01-25T06:26:08;7.50;99.90
12166;DHT22;6146;48.128;11.476;2024-01-25T06:28:34;7.50;99.90
12166;DHT22;6146;48.128;11.476;2024-01-25T06:31:01;7.50;99.90
12166;DHT22;6146;48.128;11.476;2024-01-25T06:33:26;7.50;99.90
12166;DHT22;6146;48.128;11.476;2024-01-25T06:35:53;7.50;99.90
12166;DHT22;6146;48.128;11.476;2024-01-25T06:38:19;7.40;99.90
12166;DHT22;6146;48.128;11.476;2024-01-25T06:40:44;7.40;99.90
12166;DHT22;6146;48.128;11.476;2024-01-25T06:43:10;7.40;99.90
12166;DHT22;6146;48.128;11.476;2024-01-25T06:45:37;7.40;99.90
12166;DHT22;6146;48.128;11.476;2024-01-25T06:48:06;7.30;99.90
12166;DHT22;6146;48.128;11.476;2024-01-25T06:50:31;7.30;99.90
12166;DHT22;6146;48.128;11.476;2024-01-25T06:52:57;7.20;99.90
12166;DHT22;6146;48.128;11.476;2024-01-25T06:55:22;7.20;99.90
12166;DHT22;6146;48.128;11.476;2024-01-25T06:57:48;7.10;99.90
12166;DHT22;6146;48.128;11.476;2024-01-25T07:00:14;7.00;99.90
12166;DHT22;6146;48.128;11.476;2024-01-25T07:02:41;7.00;99.90
12166;DHT22;6146;48.128;11.476;2024-01-25T07:05:08;6.90;99.90
12166;DHT22;6146;48.128;11.476;2024-01-25T07:07:34;6.90;99.90
12166;DHT22;6146;48.128;11.476;2024-01-25T07:09:59;6.80;99.90
12166;DHT22;6146;48.128;11.476;2024-01-25T07:12:25;6.80;99.90
12166;DHT22;6146;48.128;11.476;2024-01-25T07:14:50;6.70;99.90
12166;DHT22;6146;48.128;11.476;2024-01-25T07:17:16;6.80;99.90
12166;DHT22;6146;48.128;11.476;2024-01-25T07:19:41;6.80;99.90
12166;DHT22;6146;48.128;11.476;2024-01-25T07:22:07;6.80;99.90
12166;DHT22;6146;48.128;11.476;2024-01-25T07:24:33;6.90;99.90
12166;DHT22;6146;48.128;11.476;2024-01-25T07:26:58;6.90;99.90
12166;DHT22;6146;48.128;11.476;2024-01-25T07:29:24;7.00;99.90
12166;DHT22;6146;48.128;11.476;2024-01-25T07:31:50;7.00;99.90
12166;DHT22;6146;48.128;11.476;2024-01-25T07:34:15;7.10;99.90
12166;DHT22;6146;48.128;11.476;2024-01-25T07:36:41;7.10;99.90
12166;DHT22;6146;48.128;11.476;2024-01-25T07:39:06;7.20;99.90
12166;DHT22;6146;48.128;11.476;2024-01-25T07:41:33;7.20;99.90
12166;DHT22;6146;48.128;11.476;2024-01-25T07:43:59;7.60;99.90
12166;DHT22;6146;48.128;11.476;2024-01-25T07:46:24;8.30;99.90
12166;DHT22;6146;48.128;11.476;2024-01-25T07:48:50;8.80;99.90
12166;DHT22;6146;48.128;11.476;2024-01-25T07:51:15;9.00;99.90
12166;DHT22;6146;48.128;11.476;2024-01-25T07:53:41;9.10;99.90
12166;DHT22;6146;48.128;11.476;2024-01-25T07:56:07;9.80;99.90
12166;DHT22;6146;48.128;11.476;2024-01-25T07:58:35;10.20;99.90
12166;DHT22;6146;48.128;11.476;2024-01-25T08:01:03;10.10;99.90
12166;DHT22;6146;48.128;11.476;2024-01-25T08:03:29;9.90;99.90
12166;DHT22;6146;48.128;11.476;2024-01-25T08:05:55;9.70;99.90
12166;DHT22;6146;48.128;11.476;2024-01-25T08:08:20;9.40;99.90
12166;DHT22;6146;48.128;11.476;2024-01-25T08:10:46;9.20;99.90
12166;DHT22;6146;48.128;11.476;2024-01-25T08:13:12;9.10;99.90
12166;DHT22;6146;48.128;11.476;2024-01-25T08:15:38;9.10;99.90
12166;DHT22;6146;48.128;11.476;2024-01-25T08:18:03;8.90;99.90
12166;DHT22;6146;48.128;11.476;2024-01-25T08:20:29;8.90;99.90
12166;DHT22;6146;48.128;11.476;2024-01-25T08:22:54;9.40;99.90
12166;DHT22;6146;48.128;11.476;2024-01-25T08:25:20;9.60;99.90
12166;DHT22;6146;48.128;11.476;2024-01-25T08:27:46;9.80;99.90
12166;DHT22;6146;48.128;11.476;2024-01-25T08:30:12;9.70;99.90
12166;DHT22;6146;48.128;11.476;2024-01-25T08:32:37;9.60;99.90
12166;DHT22;6146;48.128;11.476;2024-01-25T08:35:03;9.60;99.90
12166;DHT22;6146;48.128;11.476;2024-01-25T08:37:29;9.40;99.90
12166;DHT22;6146;48.128;11.476;2024-01-25T08:39:54;9.40;99.90
12166;DHT22;6146;48.128;11.476;2024-01-25T08:42:20;9.40;99.90
12166;DHT22;6146;48.128;11.476;2024-01-25T08:44:46;9.50;99.90
12166;DHT22;6146;48.128;11.476;2024-01-25T08:47:17;9.70;99.90
12166;DHT22;6146;48.128;11.476;2024-01-25T08:49:43;10.70;99.90
12166;DHT22;6146;48.128;11.476;2024-01-25T08:52:09;11.80;99.90
12166;DHT22;6146;48.128;11.476;2024-01-25T08:54:35;12.80;99.90
12166;DHT22;6146;48.128;11.476;2024-01-25T08:57:03;13.90;99.90
12166;DHT22;6146;48.128;11.476;2024-01-25T08:59:29;14.50;99.90
12166;DHT22;6146;48.128;11.476;2024-01-25T09:01:57;15.40;99.90
12166;DHT22;6146;48.128;11.476;2024-01-25T09:04:23;16.00;99.90
12166;DHT22;6146;48.128;11.476;2024-01-25T09:06:48;16.20;99.90
12166;DHT22;6146;48.128;11.476;2024-01-25T09:09:14;16.10;99.90
12166;DHT22;6146;48.128;11.476;2024-01-25T09:11:39;16.00;99.90
12166;DHT22;6146;48.128;11.476;2024-01-25T09:14:05;16.70;99.60
12166;DHT22;6146;48.128;11.476;2024-01-25T09:16:31;16.60;98.60
12166;DHT22;6146;48.128;11.476;2024-01-25T09:18:56;15.70;99.00
12166;DHT22;6146;48.128;11.476;2024-01-25T09:21:22;14.70;99.90
12166;DHT22;6146;48.128;11.476;2024-01-25T09:23:47;13.90;99.90
12166;DHT22;6146;48.128;11.476;2024-01-25T09:26:13;12.90;99.90
12166;DHT22;6146;48.128;11.476;2024-01-25T09:28:38;12.00;99.90
12166;DHT22;6146;48.128;11.476;2024-01-25T09:31:04;11.50;99.90
12166;DHT22;6146;48.128;11.476;2024-01-25T09:33:29;11.30;99.90
12166;DHT22;6146;48.128;11.476;2024-01-25T09:35:55;11.10;99.90
12166;DHT22;6146;48.128;11.476;2024-01-25T09:38:21;10.80;99.90
12166;DHT22;6146;48.128;11.476;2024-01-25T09:40:47;10.40;99.90
12166;DHT22;6146;48.128;11.476;2024-01-25T09:43:14;10.80;99.90
12166;DHT22;6146;48.128;11.476;2024-01-25T09:45:41;12.40;99.90
12166;DHT22;6146;48.128;11.476;2024-01-25T09:48:07;14.10;99.90
12166;DHT22;6146;48.128;11.476;2024-01-25T09:50:33;15.30;99.90
12166;DHT22;6146;48.128;11.476;2024-01-25T09:52:59;15.90;99.90
12166;DHT22;6146;48.128;11.476;2024-01-25T09:55:26;16.30;99.90
12166;DHT22;6146;48.128;11.476;2024-01-25T09:57:55;17.00;98.50
12166;DHT22;6146;48.128;11.476;2024-01-25T10:00:22;17.50;97.40
12166;DHT22;6146;48.128;11.476;2024-01-25T10:02:48;18.70;95.60
12166;DHT22;6146;48.128;11.476;2024-01-25T10:05:15;19.30;94.10
12166;DHT22;6146;48.128;11.476;2024-01-25T10:07:42;18.20;93.30
12166;DHT22;6146;48.128;11.476;2024-01-25T10:10:10;17.90;93.10
12166;DHT22;6146;48.128;11.476;2024-01-25T10:12:37;16.80;93.60
12166;DHT22;6146;48.128;11.476;2024-01-25T10:15:04;15.20;94.50
12166;DHT22;6146;48.128;11.476;2024-01-25T10:17:30;13.70;97.50
12166;DHT22;6146;48.128;11.476;2024-01-25T10:19:56;13.00;99.90
12166;DHT22;6146;48.128;11.476;2024-01-25T10:22:22;13.90;99.30
12166;DHT22;6146;48.128;11.476;2024-01-25T10:24:48;15.10;98.10
12166;DHT22;6146;48.128;11.476;2024-01-25T10:27:16;16.00;96.70
12166;DHT22;6146;48.128;11.476;2024-01-25T10:29:41;16.90;95.30
12166;DHT22;6146;48.128;11.476;2024-01-25T10:32:08;15.90;95.00
12166;DHT22;6146;48.128;11.476;2024-01-25T10:34:38;15.40;96.60
12166;DHT22;6146;48.128;11.476;2024-01-25T10:37:05;16.00;95.50
12166;DHT22;6146;48.128;11.476;2024-01-25T10:39:32;15.50;96.00
12166;DHT22;6146;48.128;11.476;2024-01-25T10:41:59;14.60;97.60
12166;DHT22;6146;48.128;11.476;2024-01-25T10:44:25;13.60;98.80
12166;DHT22;6146;48.128;11.476;2024-01-25T10:46:51;12.90;99.90
12166;DHT22;6146;48.128;11.476;2024-01-25T10:49:17;12.20;99.90
12166;DHT22;6146;48.128;11.476;2024-01-25T10:51:44;11.80;99.90
12166;DHT22;6146;48.128;11.476;2024-01-25T10:54:13;11.70;99.90
12166;DHT22;6146;48.128;11.476;2024-01-25T10:56:42;11.50;99.90
12166;DHT22;6146;48.128;11.476;2024-01-25T10:59:08;11.30;99.90
12166;DHT22;6146;48.128;11.476;2024-01-25T11:01:36;11.00;99.90
12166;DHT22;6146;48.128;11.476;2024-01-25T11:04:02;10.80;99.90
12166;DHT22;6146;48.128;11.476;2024-01-25T11:06:28;10.70;99.90
12166;DHT22;6146;48.128;11.476;2024-01-25T11:09:06;10.80;99.90
12166;DHT22;6146;48.128;11.476;2024-01-25T11:11:32;10.90;99.90
12166;DHT22;6146;48.128;11.476;2024-01-25T11:13:58;10.80;99.90
12166;DHT22;6146;48.128;11.476;2024-01-25T11:16:29;10.90;99.90
12166;DHT22;6146;48.128;11.476;2024-01-25T11:18:57;11.50;99.90
12166;DHT22;6146;48.128;11.476;2024-01-25T11:21:40;11.40;99.90
12166;DHT22;6146;48.128;11.476;2024-01-25T11:26:43;11.30;99.90
12166;DHT22;6146;48.128;11.476;2024-01-25T11:29:19;12.00;99.90
12166;DHT22;6146;48.128;11.476;2024-01-25T11:31:47;13.60;99.90
12166;DHT22;6146;48.128;11.476;2024-01-25T11:34:14;14.10;99.90
12166;DHT22;6146;48.128;11.476;2024-01-25T11:36:40;15.30;99.90
12166;DHT22;6146;48.128;11.476;2024-01-25T11:39:09;15.80;98.40
12166;DHT22;6146;48.128;11.476;2024-01-25T11:41:35;16.90;97.00
12166;DHT22;6146;48.128;11.476;2024-01-25T11:44:02;17.30;94.70
12166;DHT22;6146;48.128;11.476;2024-01-25T11:46:28;16.90;94.30
12166;DHT22;6146;48.128;11.476;2024-01-25T11:48:53;16.70;94.90
12166;DHT22;6146;48.128;11.476;2024-01-25T11:51:19;17.30;93.20
12166;DHT22;6146;48.128;11.476;2024-01-25T11:53:44;16.90;92.90
12166;DHT22;6146;48.128;11.476;2024-01-25T11:56:12;16.50;93.70
12166;DHT22;6146;48.128;11.476;2024-01-25T11:58:42;16.30;94.00
12166;DHT22;6146;48.128;11.476;2024-01-25T12:01:08;15.40;94.50
12166;DHT22;6146;48.128;11.476;2024-01-25T12:03:35;14.50;96.10
12166;DHT22;6146;48.128;11.476;2024-01-25T12:06:05;14.10;97.60
12166;DHT22;6146;48.128;11.476;2024-01-25T12:08:34;14.60;97.30
12166;DHT22;6146;48.128;11.476;2024-01-25T12:11:07;14.90;96.70
12166;DHT22;6146;48.128;11.476;2024-01-25T12:13:43;15.00;96.50
12166;DHT22;6146;48.128;11.476;2024-01-25T12:16:09;15.50;95.50
12166;DHT22;6146;48.128;11.476;2024-01-25T12:18:35;15.60;94.90
12166;DHT22;6146;48.128;11.476;2024-01-25T12:21:03;15.40;95.00
12166;DHT22;6146;48.128;11.476;2024-01-25T12:23:39;15.30;95.40
12166;DHT22;6146;48.128;11.476;2024-01-25T12:26:09;15.20;95.50
12166;DHT22;6146;48.128;11.476;2024-01-25T12:28:36;14.70;96.00
12166;DHT22;6146;48.128;11.476;2024-01-25T12:31:06;14.10;97.20
12166;DHT22;6146;48.128;11.476;2024-01-25T12:33:32;13.40;98.70
12166;DHT22;6146;48.128;11.476;2024-01-25T12:35:58;13.00;99.70
12166;DHT22;6146;48.128;11.476;2024-01-25T12:38:24;12.90;99.90
12166;DHT22;6146;48.128;11.476;2024-01-25T12:40:51;12.50;99.90
12166;DHT22;6146;48.128;11.476;2024-01-25T12:43:17;12.70;99.90
12166;DHT22;6146;48.128;11.476;2024-01-25T12:45:43;13.30;99.90
12166;DHT22;6146;48.128;11.476;2024-01-25T12:48:09;14.30;98.40
12166;DHT22;6146;48.128;11.476;2024-01-25T12:50:36;15.30;96.80
12166;DHT22;6146;48.128;11.476;2024-01-25T12:53:02;15.60;95.40
12166;DHT22;6146;48.128;11.476;2024-01-25T12:55:30;15.50;94.60
12166;DHT22;6146;48.128;11.476;2024-01-25T12:57:57;15.30;95.10
12166;DHT22;6146;48.128;11.476;2024-01-25T13:00:23;15.50;95.30
12166;DHT22;6146;48.128;11.476;2024-01-25T13:02:49;15.60;94.90
12166;DHT22;6146;48.128;11.476;2024-01-25T13:05:15;15.10;95.40
12166;DHT22;6146;48.128;11.476;2024-01-25T13:07:41;14.90;96.10
12166;DHT22;6146;48.128;11.476;2024-01-25T13:10:08;14.40;96.60
12166;DHT22;6146;48.128;11.476;2024-01-25T13:12:33;14.10;97.90
12166;DHT22;6146;48.128;11.476;2024-01-25T13:14:59;13.90;98.60
12166;DHT22;6146;48.128;11.476;2024-01-25T13:17:25;14.00;98.30
12166;DHT22;6146;48.128;11.476;2024-01-25T13:19:53;13.80;98.40
12166;DHT22;6146;48.128;11.476;2024-01-25T13:22:18;13.80;99.00
12166;DHT22;6146;48.128;11.476;2024-01-25T13:24:46;13.70;98.80
12166;DHT22;6146;48.128;11.476;2024-01-25T13:27:12;14.10;98.80
12166;DHT22;6146;48.128;11.476;2024-01-25T13:29:37;14.50;97.80
12166;DHT22;6146;48.128;11.476;2024-01-25T13:32:03;15.10;96.70
12166;DHT22;6146;48.128;11.476;2024-01-25T13:34:29;15.70;96.70
12166;DHT22;6146;48.128;11.476;2024-01-25T13:36:54;16.50;94.70
12166;DHT22;6146;48.128;11.476;2024-01-25T13:39:20;16.10;94.40
12166;DHT22;6146;48.128;11.476;2024-01-25T13:41:45;15.80;94.70
12166;DHT22;6146;48.128;11.476;2024-01-25T13:44:13;15.30;95.30
12166;DHT22;6146;48.128;11.476;2024-01-25T13:46:39;14.60;96.30
12166;DHT22;6146;48.128;11.476;2024-01-25T13:49:04;14.30;97.10
12166;DHT22;6146;48.128;11.476;2024-01-25T13:51:30;14.20;97.00
12166;DHT22;6146;48.128;11.476;2024-01-25T13:53:55;13.80;97.40
12166;DHT22;6146;48.128;11.476;2024-01-25T13:56:21;13.50;97.80
12166;DHT22;6146;48.128;11.476;2024-01-25T13:58:47;13.20;98.40
12166;DHT22;6146;48.128;11.476;2024-01-25T14:01:12;12.70;99.90
12166;DHT22;6146;48.128;11.476;2024-01-25T14:03:38;12.30;99.90
12166;DHT22;6146;48.128;11.476;2024-01-25T14:06:03;12.10;99.90
12166;DHT22;6146;48.128;11.476;2024-01-25T14:08:30;12.10;99.90
12166;DHT22;6146;48.128;11.476;2024-01-25T14:10:56;11.90;99.90
12166;DHT22;6146;48.128;11.476;2024-01-25T14:13:22;11.70;99.90
12166;DHT22;6146;48.128;11.476;2024-01-25T14:15:48;11.70;99.90
12166;DHT22;6146;48.128;11.476;2024-01-25T14:18:14;11.70;99.90
12166;DHT22;6146;48.128;11.476;2024-01-25T14:20:39;11.60;99.90
12166;DHT22;6146;48.128;11.476;2024-01-25T14:23:05;11.60;99.90
12166;DHT22;6146;48.128;11.476;2024-01-25T14:25:30;11.50;99.90
12166;DHT22;6146;48.128;11.476;2024-01-25T14:27:56;11.80;99.90
12166;DHT22;6146;48.128;11.476;2024-01-25T14:30:22;12.10;99.90
12166;DHT22;6146;48.128;11.476;2024-01-25T14:32:47;12.20;99.90
12166;DHT22;6146;48.128;11.476;2024-01-25T14:35:13;12.10;99.90
12166;DHT22;6146;48.128;11.476;2024-01-25T14:37:38;11.90;99.90
12166;DHT22;6146;48.128;11.476;2024-01-25T14:40:04;11.80;99.90
12166;DHT22;6146;48.128;11.476;2024-01-25T14:42:30;11.70;99.90
12166;DHT22;6146;48.128;11.476;2024-01-25T14:44:56;11.50;99.90
12166;DHT22;6146;48.128;11.476;2024-01-25T14:47:21;11.20;99.90
12166;DHT22;6146;48.128;11.476;2024-01-25T14:49:48;11.00;99.90
12166;DHT22;6146;48.128;11.476;2024-01-25T14:52:14;11.00;99.90
12166;DHT22;6146;48.128;11.476;2024-01-25T14:54:40;10.80;99.90
12166;DHT22;6146;48.128;11.476;2024-01-25T14:57:06;10.70;99.90
12166;DHT22;6146;48.128;11.476;2024-01-25T14:59:31;10.70;99.90
12166;DHT22;6146;48.128;11.476;2024-01-25T15:01:57;10.60;99.90
12166;DHT22;6146;48.128;11.476;2024-01-25T15:04:22;10.60;99.90
12166;DHT22;6146;48.128;11.476;2024-01-25T15:06:48;10.50;99.90
12166;DHT22;6146;48.128;11.476;2024-01-25T15:09:13;10.50;99.90
12166;DHT22;6146;48.128;11.476;2024-01-25T15:11:39;10.40;99.90
12166;DHT22;6146;48.128;11.476;2024-01-25T15:14:05;10.40;99.90
12166;DHT22;6146;48.128;11.476;2024-01-25T15:16:30;10.30;99.90
12166;DHT22;6146;48.128;11.476;2024-01-25T15:18:57;10.10;99.90
12166;DHT22;6146;48.128;11.476;2024-01-25T15:21:23;10.10;99.90
12166;DHT22;6146;48.128;11.476;2024-01-25T15:23:49;10.00;99.90
12166;DHT22;6146;48.128;11.476;2024-01-25T15:26:15;9.90;99.90
12166;DHT22;6146;48.128;11.476;2024-01-25T15:28:40;9.80;99.90
12166;DHT22;6146;48.128;11.476;2024-01-25T15:31:06;9.80;99.90
12166;DHT22;6146;48.128;11.476;2024-01-25T15:33:31;9.80;99.90
12166;DHT22;6146;48.128;11.476;2024-01-25T15:35:57;9.70;99.90
12166;DHT22;6146;48.128;11.476;2024-01-25T15:38:22;9.60;99.90